Date,TemperatureHighF,TemperatureAvgF,TemperatureLowF,DewpointHighF,DewpointAvgF,DewpointLowF,HumidityHigh,HumidityAvg,HumidityLow,PressureMaxIn,PressureMinIn,WindSpeedMaxMPH,WindSpeedAvgMPH,GustSpeedMaxMPH,PrecipitationSumIn
2013-1-1,60,51,42,42,38,34,77,61,46,30.21,30.08,9,2,19,0.00
2013-1-2,65,55,47,47,35,32,67,48,29,30.14,29.95,7,3,17,0.00
2013-1-3,66,51,41,48,38,30,77,63,31,30.15,29.95,8,2,13,0.00
2013-1-4,64,52,43,46,40,35,78,66,39,30.22,30.14,7,1,14,0.00
2013-1-5,59,50,42,48,39,30,75,67,46,30.25,30.05,11,2,19,0.38
2013-1-6,56,51,46,47,40,29,75,65,45,30.09,29.83,16,4,27,0.21
2013-1-7,59,51,44,49,42,36,77,72,63,30.19,29.87,9,2,12,0.00
2013-1-8,63,54,46,53,45,38,75,71,64,30.11,29.51,6,2,10,0.00
2013-1-9,60,54,48,51,44,40,76,71,63,30.05,29.80,15,3,30,0.00
2013-1-10,53,48,42,40,37,32,76,66,57,30.14,30.01,23,5,31,0.00
2013-1-11,54,45,35,43,36,28,78,69,49,30.21,29.92,21,4,28,0.00
2013-1-12,54,47,40,39,36,30,77,64,50,30.18,29.95,7,2,16,0.00
2013-1-13,53,46,41,38,31,26,72,55,37,30.17,29.82,12,3,14,0.00
2013-1-14,55,46,37,35,28,23,66,50,34,30.32,29.91,6,2,12,0.00
2013-1-15,55,46,37,42,32,25,78,60,35,30.38,29.89,6,2,12,0.00
2013-1-16,60,49,38,48,38,32,78,66,46,30.36,30.15,6,2,12,0.00
2013-1-17,68,54,44,52,41,34,76,61,42,30.15,29.83,5,2,11,0.00
2013-1-18,70,58,44,48,39,32,75,50,35,30.13,30.00,9,3,12,0.00
2013-1-19,77,62,56,42,35,31,51,37,21,30.07,29.51,10,3,13,0.00
2013-1-20,79,63,54,49,34,29,64,35,20,30.09,29.64,7,2,13,0.00
2013-1-21,78,66,57,44,34,25,46,32,22,30.08,29.88,13,3,19,0.00
2013-1-22,77,61,48,40,34,28,52,37,20,30.03,29.49,6,2,14,0.00
2013-1-23,72,58,53,50,40,30,74,53,26,30.04,29.92,7,2,21,0.00
2013-1-24,65,59,52,55,40,29,74,51,34,30.10,29.98,10,2,18,0.47
2013-1-25,70,62,58,56,48,28,71,60,31,30.08,29.55,7,2,15,0.02
2013-1-26,59,55,51,48,40,26,73,58,29,30.00,29.91,14,4,25,0.00
2013-1-27,55,51,45,45,41,35,76,70,59,30.10,30.00,16,4,28,0.00
2013-1-28,56,50,40,46,40,33,76,70,58,30.21,30.09,18,3,25,0.00
2013-1-29,58,50,42,46,41,33,76,71,64,30.26,30.18,5,2,13,0.00
2013-1-30,68,54,47,50,43,35,73,65,51,30.30,30.19,4,2,14,0.00
2013-1-31,64,53,45,51,42,32,72,66,57,30.22,30.09,6,2,10,0.00
2013-2-1,60,51,45,49,37,21,74,59,31,30.17,30.09,6,2,16,0.00
2013-2-2,60,53,47,49,29,17,68,41,25,30.20,30.12,8,1,12,0.00
2013-2-3,60,51,44,49,28,15,69,43,24,30.16,30.07,11,2,24,0.00
2013-2-4,60,52,44,48,28,14,68,42,25,30.09,29.98,13,2,18,0.01
2013-2-5,57,51,46,43,25,15,63,37,24,30.07,29.99,4,2,12,0.00
2013-2-6,58,51,44,47,34,14,70,54,26,30.11,30.00,9,2,16,0.01
2013-2-7,58,50,40,48,34,12,68,54,29,30.11,29.90,11,3,19,0.00
2013-2-8,52,46,39,42,28,11,69,52,27,29.98,29.44,13,2,23,0.18
2013-2-9,56,46,36,44,30,12,70,55,35,30.07,29.96,16,4,20,0.01
2013-2-10,57,47,36,46,28,8,69,50,30,30.08,29.98,5,2,13,0.00
2013-2-11,58,48,37,47,28,10,69,49,30,30.20,30.02,10,2,16,0.00
2013-2-12,58,48,39,48,28,11,70,46,29,30.30,30.04,10,3,13,0.01
2013-2-13,60,51,42,49,32,14,70,49,30,30.25,30.02,10,2,17,0.00
2013-2-14,65,57,45,51,44,19,70,61,33,30.14,29.57,6,2,13,0.00
2013-2-15,80,67,60,48,42,38,53,40,23,30.17,30.09,9,3,16,0.00
2013-2-16,74,65,51,53,41,36,56,42,31,30.12,29.90,8,3,14,0.00
2013-2-17,60,50,42,49,37,17,71,62,32,30.00,29.93,13,4,23,0.00
2013-2-18,54,50,47,43,34,18,72,55,30,30.02,29.93,10,2,19,0.00
2013-2-19,53,48,40,43,36,22,74,64,34,29.93,29.71,12,3,31,0.27
2013-2-20,56,48,37,45,38,26,73,67,56,30.03,29.77,16,4,29,0.00
2013-2-21,57,48,36,46,35,17,71,61,43,30.11,29.78,12,3,22,0.00
2013-2-22,60,50,41,47,38,27,72,64,50,30.19,28.18,10,2,13,0.00
2013-2-23,57,50,40,47,35,16,70,57,35,30.13,28.43,18,4,32,0.00
2013-2-24,62,54,46,46,32,27,61,44,31,30.19,30.07,11,3,17,0.00
2013-2-25,59,50,41,47,37,22,72,62,39,30.21,29.73,8,2,16,0.00
2013-2-26,64,54,45,49,39,24,72,59,32,30.11,29.70,10,3,15,0.00
2013-2-27,66,52,42,50,38,20,72,60,37,30.27,30.08,11,3,14,0.00
2013-2-28,68,54,43,51,39,18,70,57,35,30.36,29.78,7,2,17,0.00
2013-3-1,75,64,54,53,49,43,70,58,43,30.25,29.05,19,3,19,0.00
2013-3-2,72,61,52,53,45,25,71,56,34,30.14,29.74,9,2,14,0.00
2013-3-3,59,55,50,48,36,24,70,51,34,30.07,29.89,13,3,18,0.00
2013-3-4,57,52,47,47,34,22,70,52,33,30.08,29.66,16,3,21,0.00
2013-3-5,56,53,50,44,41,28,71,63,42,30.07,29.94,11,3,15,0.00
2013-3-6,56,51,44,45,29,21,71,44,27,30.06,29.90,16,4,22,0.45
2013-3-7,57,50,43,46,32,15,68,50,31,29.96,29.61,9,2,13,0.20
2013-3-8,56,50,46,45,32,17,70,52,29,30.05,29.45,19,5,33,0.04
2013-3-9,59,51,42,48,38,25,71,61,41,30.24,30.05,14,3,22,0.00
2013-3-10,60,51,42,48,30,14,67,46,28,30.28,30.13,11,2,16,0.00
2013-3-11,62,51,42,48,24,12,65,37,23,30.18,29.58,8,2,16,0.01
2013-3-12,62,53,47,48,24,14,61,33,22,30.05,29.57,12,2,17,0.01
2013-3-13,72,54,48,54,22,14,59,30,20,30.06,29.53,7,2,22,0.01
2013-3-14,62,52,49,43,19,15,51,27,23,30.08,29.67,10,2,18,0.01
2013-3-15,69,57,51,55,34,16,67,45,23,29.98,29.52,12,3,18,0.00
2013-3-16,65,54,49,50,30,17,65,42,23,29.97,29.56,10,2,20,0.01
2013-3-17,64,55,46,51,39,18,68,56,32,30.01,29.58,11,3,24,0.00
2013-3-18,68,53,43,51,30,12,68,43,24,30.04,29.54,11,2,21,0.00
2013-3-19,74,56,48,52,35,15,66,46,24,30.05,29.51,9,2,20,0.00
2013-3-20,68,57,51,51,40,17,68,55,26,30.05,29.47,10,2,21,0.00
2013-3-21,57,53,46,46,30,15,66,44,24,30.02,29.33,16,4,28,0.01
2013-3-22,65,54,45,49,36,14,67,53,27,29.96,29.32,9,2,14,0.00
2013-3-23,68,56,46,50,38,22,67,53,31,30.04,29.94,12,2,15,0.00
2013-3-24,64,53,44,49,33,16,67,48,29,30.02,29.44,11,3,18,0.00
2013-3-25,62,50,43,50,27,13,67,42,24,29.90,28.93,10,2,17,0.00
2013-3-26,59,52,47,48,30,16,67,45,26,29.49,28.83,13,3,16,0.00
2013-3-27,60,54,47,48,27,14,64,37,24,29.67,29.05,11,2,17,0.00
2013-3-28,64,57,51,52,31,18,65,39,24,29.98,29.10,7,1,16,0.00
2013-3-29,62,54,47,47,24,14,59,33,22,30.07,29.98,12,2,14,0.01
2013-3-30,67,58,53,53,31,18,66,39,23,30.08,28.90,9,3,17,0.27
2013-3-31,67,59,54,53,30,20,64,35,23,29.98,29.48,12,2,16,0.01
2013-4-1,64,58,50,51,30,20,63,36,23,30.03,29.18,8,2,14,0.09
2013-4-2,60,54,47,46,28,15,62,39,24,30.10,29.34,17,4,24,0.00
2013-4-3,70,56,53,53,23,16,60,29,22,29.97,29.45,12,2,18,0.00
2013-4-4,65,57,53,52,28,17,64,36,22,29.97,29.43,10,3,14,0.02
2013-4-5,62,57,53,45,26,18,54,31,22,29.96,29.33,17,4,27,0.01
2013-4-6,64,56,49,50,28,16,61,36,23,30.03,29.30,23,5,31,0.00
2013-4-7,62,56,50,46,29,16,57,38,22,30.01,28.92,26,8,33,0.01
2013-4-8,57,54,51,45,38,18,65,56,24,29.91,29.78,27,10,36,0.01
2013-4-9,66,56,48,48,38,17,65,51,28,29.99,29.73,12,4,23,0.00
2013-4-10,75,59,49,50,41,31,66,53,33,30.11,29.50,10,2,14,0.00
2013-4-11,59,52,46,44,28,13,62,40,23,30.00,28.61,16,4,30,0.00
2013-4-12,59,51,45,45,24,12,60,36,24,29.83,28.69,16,4,24,0.00
2013-4-13,59,52,47,43,25,14,56,37,21,29.84,28.30,10,2,16,0.00
2013-4-14,61,52,46,45,28,12,59,42,24,29.86,29.77,13,3,20,0.01
2013-4-15,55,51,44,39,28,10,58,43,20,29.93,29.83,30,9,40,0.00
2013-4-16,56,50,38,40,34,20,61,55,47,30.05,28.76,25,6,33,0.00
2013-4-17,63,54,47,43,37,26,60,52,35,30.15,27.33,18,4,32,0.00
2013-4-18,67,56,46,47,35,11,60,46,21,29.04,27.33,12,3,16,0.00
2013-4-19,69,56,44,49,30,10,60,39,23,29.40,27.17,14,3,18,0.00
2013-4-20,71,56,47,52,30,12,61,39,22,28.87,27.74,11,3,21,0.00
2013-4-21,74,59,47,53,35,13,64,42,23,28.83,24.64,8,2,14,0.00
2013-4-22,62,55,48,47,28,14,60,37,23,29.29,27.63,9,3,15,0.00
2013-4-23,62,56,53,45,25,15,54,31,21,29.92,28.77,8,2,16,0.01
2013-4-24,61,57,53,46,29,16,58,37,21,29.24,28.43,5,1,12,0.00
2013-4-25,64,58,50,48,34,14,57,42,21,29.39,25.85,10,2,17,0.00
2013-4-26,61,54,48,45,23,12,55,32,21,30.10,28.90,14,4,22,0.00
2013-4-27,59,54,52,39,20,14,47,27,22,30.13,29.85,13,4,20,0.00
2013-4-28,60,55,53,37,22,13,43,28,19,29.98,29.32,14,3,18,0.00
2013-4-29,66,54,51,43,20,12,44,26,18,29.81,28.66,7,2,15,0.00
2013-4-30,60,55,52,39,23,15,45,30,20,29.02,26.64,8,2,16,0.01
2013-5-1,67,60,54,50,34,16,56,39,21,29.14,23.64,10,3,15,0.00
2013-5-2,74,61,52,55,33,15,56,38,20,30.04,24.88,7,2,13,0.00
2013-5-3,82,64,52,56,41,15,61,43,21,29.89,21.02,13,4,21,0.00
2013-5-4,62,56,52,42,22,14,49,28,20,29.69,28.59,6,2,16,0.00
2013-5-5,60,58,55,32,21,15,35,24,19,29.73,29.20,17,6,30,0.01
2013-5-6,65,61,57,45,26,14,48,29,18,29.65,28.57,17,6,27,0.01
2013-5-7,69,61,56,50,30,15,52,33,18,29.85,28.64,8,2,16,0.03
2013-5-8,61,58,54,40,25,15,46,29,20,30.02,28.52,14,4,23,0.00
2013-5-9,61,57,53,39,23,13,45,28,19,30.08,28.25,18,4,25,0.00
2013-5-10,69,57,52,47,22,14,46,26,18,30.07,28.30,16,4,25,0.00
2013-5-11,67,58,55,43,22,0,44,25,17,30.00,27.99,16,4,21,0.00
2013-5-12,71,59,2,47,27,-23,45,31,17,29.98,27.48,11,3,24,0.00
2013-5-13,62,56,-2,30,18,-33,30,22,16,30.00,28.57,16,4,20,0.00
2013-5-14,62,56,1,35,18,-54,37,23,5,29.72,29.17,18,5,24,0.00
2013-5-15,63,58,53,34,21,7,36,24,14,29.77,29.24,13,5,28,0.00
2013-5-16,66,54,1,42,15,-54,43,23,1,29.92,29.35,26,5,30,0.00
2013-5-17,62,56,3,35,22,-53,37,27,5,29.89,29.02,17,4,33,0.00
2013-5-18,84,56,-1,40,22,-55,41,27,5,30.06,29.08,18,4,28,0.00
2013-5-19,64,57,50,41,25,10,44,31,17,30.00,28.89,15,3,22,0.00
2013-5-20,74,60,51,52,29,9,51,32,17,29.85,25.34,10,3,18,0.00
2013-5-21,64,57,49,42,28,12,50,35,18,29.88,28.91,19,5,33,0.00
2013-5-22,59,52,45,37,26,9,48,37,19,29.90,28.64,20,6,36,0.00
2013-5-23,59,52,41,40,26,8,49,38,21,29.90,28.84,22,6,36,0.00
2013-5-24,61,53,45,43,24,9,52,34,20,29.88,28.66,15,4,29,0.00
2013-5-25,59,52,46,42,22,10,53,32,21,29.97,29.07,21,5,27,0.00
2013-5-26,62,54,49,40,20,12,46,27,20,30.02,29.27,26,6,32,0.00
2013-5-27,64,58,55,43,25,11,48,28,17,29.97,28.63,22,6,32,0.00
2013-5-28,65,58,55,39,19,13,45,22,17,29.73,27.31,22,5,32,0.00
2013-5-29,68,57,52,49,26,13,52,31,19,29.60,26.44,19,5,32,0.00
2013-5-30,63,56,50,44,27,11,49,33,18,29.67,26.51,16,4,28,0.00
2013-5-31,68,57,47,49,29,9,52,36,18,29.68,27.13,11,3,17,0.00
2013-6-1,69,59,51,51,34,14,55,41,22,29.58,27.62,11,3,17,0.00
2013-6-2,68,58,50,50,29,13,54,34,19,29.64,26.80,17,4,19,0.00
2013-6-3,69,60,56,51,29,13,53,32,17,29.53,25.63,4,2,12,0.00
2013-6-4,66,60,55,48,30,13,52,34,18,29.44,21.11,11,2,15,0.00
2013-6-5,62,58,53,44,28,16,52,34,20,29.50,26.41,12,4,19,0.00
2013-6-6,62,58,56,42,24,16,49,28,20,29.44,26.46,11,4,18,0.00
2013-6-7,62,57,3,35,19,-28,37,23,18,29.46,25.59,13,3,16,0.00
2013-6-8,66,60,58,37,23,11,35,24,14,29.34,26.48,12,3,17,0.00
2013-6-9,65,62,61,41,26,17,44,27,17,29.28,27.80,7,2,14,0.00
2013-6-10,70,64,58,51,39,16,51,40,19,29.08,16.99,11,2,18,0.00
2013-6-11,64,61,57,40,23,14,42,24,17,28.37,16.61,16,3,19,0.00
2013-6-12,63,58,53,32,23,9,33,26,15,29.52,16.08,13,3,16,0.00
2013-6-13,63,57,52,36,21,5,36,25,14,29.61,22.66,15,3,24,0.00
2013-6-14,73,59,52,49,23,5,45,26,13,29.52,25.79,7,2,15,0.00
2013-6-15,63,56,1,37,20,-32,40,25,14,29.36,27.36,11,3,21,0.00
2013-6-16,66,60,55,42,26,9,43,29,15,29.51,23.24,10,3,17,0.00
2013-6-17,64,58,53,36,16,6,35,20,12,29.27,17.45,17,4,27,0.00
2013-6-18,62,56,53,32,16,4,32,21,13,29.52,17.45,33,6,36,0.00
2013-6-19,64,58,51,38,23,0,38,26,12,29.38,24.07,16,5,28,0.00
2013-6-20,68,58,50,41,21,0,39,25,12,29.33,24.69,19,4,29,0.00
2013-6-21,64,57,48,36,15,-1,35,20,10,29.44,26.16,13,4,22,0.00
2013-6-22,66,58,53,43,25,6,45,30,15,29.43,21.29,12,4,18,0.00
2013-6-23,62,57,3,28,14,-23,28,19,14,29.24,26.53,9,3,22,0.00
2013-6-24,69,46,0,28,16,0,28,16,16,28.97,27.70,6,2,15,0.01
2013-6-25,68,41,0,28,-4,-52,28,9,5,28.85,20.88,12,3,17,0.01
2013-6-26,70,35,5,38,1,-51,33,25,5,28.46,16.20,14,4,25,0.00
2013-6-27,76,66,60,53,32,13,47,31,14,31.73,16.22,10,2,17,0.00
2013-6-28,73,63,57,50,27,10,46,28,14,31.73,18.92,9,2,15,0.00
2013-6-29,79,66,58,57,36,9,53,36,14,28.80,18.92,18,3,20,0.00
2013-6-30,71,64,58,48,33,9,47,34,14,28.80,18.45,11,3,20,0.00
2013-7-1,78,67,59,54,29,7,43,25,11,28.65,18.45,9,2,18,0.00
2013-7-2,84,67,57,57,28,6,44,26,10,28.65,20.75,9,2,14,0.00
2013-7-3,68,45,-1,42,1,-56,39,17,5,28.14,16.87,10,2,15,0.00
2013-7-4,71,35,2,48,-2,-54,44,23,5,28.57,16.84,7,2,14,0.00
2013-7-5,67,33,3,40,-5,-53,39,22,5,27.96,16.07,11,3,20,0.00
2013-7-6,64,27,-1,37,-24,-79,37,12,1,28.71,16.07,13,3,17,0.00
2013-7-7,65,33,1,39,-23,-78,39,15,1,28.66,23.37,10,2,17,0.00
2013-7-8,64,60,57,34,18,7,33,20,13,28.96,24.78,11,3,16,0.00
2013-7-9,68,52,-8,40,13,-52,39,22,5,28.44,17.02,14,4,18,0.00
2013-7-10,64,23,-8,31,-12,-40,29,22,13,28.69,20.84,10,3,16,0.00
2013-7-11,64,58,-2,40,22,-35,42,26,14,28.75,16.18,9,2,16,0.00
2013-7-12,62,24,1,30,-11,-53,29,21,5,29.34,21.73,11,2,17,0.00
2013-7-13,62,28,2,30,-8,-52,30,21,5,29.32,25.89,11,3,15,0.00
2013-7-14,64,53,-2,38,14,-52,39,23,5,29.59,26.48,10,4,22,0.00
2013-7-15,64,32,-2,39,-3,-54,40,22,5,29.89,27.49,14,4,22,0.00
2013-7-16,66,59,2,42,20,-32,44,24,13,29.58,23.06,15,4,22,0.00
2013-7-17,64,60,57,36,20,8,35,21,14,29.90,23.55,19,5,25,0.00
2013-7-18,62,56,4,26,15,-22,28,20,14,29.99,27.98,14,4,23,0.00
2013-7-19,62,57,56,32,18,9,34,22,15,29.88,28.62,16,4,23,0.00
2013-7-20,64,57,3,44,20,-30,48,25,15,29.75,27.78,10,3,17,0.00
2013-7-21,69,60,57,50,27,15,52,30,17,29.41,22.69,10,2,14,0.00
2013-7-22,74,65,59,56,28,10,53,28,14,32.22,23.88,7,2,13,0.00
2013-7-23,66,63,60,34,18,-5,30,19,6,32.22,20.42,11,2,15,0.00
2013-7-24,64,61,57,33,24,11,34,25,16,29.13,24.59,14,3,17,0.01
2013-7-25,65,58,1,38,14,-32,39,18,14,28.87,21.82,12,4,18,0.00
2013-7-26,63,46,-7,31,8,-37,30,21,15,30.00,25.26,14,4,18,0.00
2013-7-27,63,31,2,33,-7,-34,33,19,15,29.52,26.64,11,3,18,0.00
2013-7-28,65,60,58,44,22,10,47,25,15,29.44,24.42,6,2,15,0.00
2013-7-29,67,61,57,47,24,9,50,28,14,29.42,19.41,10,2,18,0.00
2013-7-30,67,61,56,46,22,8,48,25,13,28.80,22.25,10,3,16,0.00
2013-7-31,64,59,56,40,18,7,41,22,12,28.76,18.16,13,3,21,0.00
2013-8-1,66,60,55,47,25,7,50,28,14,29.44,20.72,18,6,28,0.00
2013-8-2,63,57,4,35,17,-22,35,22,15,29.74,25.48,16,4,26,0.00
2013-8-3,64,58,56,43,20,7,47,25,14,29.59,26.39,13,3,19,0.00
2013-8-4,62,58,55,39,18,8,43,22,15,29.57,26.67,12,3,19,0.00
2013-8-5,62,58,55,31,14,8,31,18,15,29.73,22.34,14,4,19,0.00
2013-8-6,63,58,55,40,19,8,44,22,15,29.83,16.01,14,3,19,0.00
2013-8-7,66,59,56,44,21,9,47,24,15,29.88,17.94,16,3,23,0.00
2013-8-8,65,59,57,41,14,8,42,18,14,26.45,21.17,13,4,22,0.00
2013-8-9,65,60,56,44,17,7,47,21,13,25.71,23.48,14,4,24,0.00
2013-8-10,65,60,57,38,14,9,37,17,13,24.11,16.54,11,3,23,0.00
2013-8-11,64,58,57,32,12,10,30,16,15,27.35,20.65,14,4,22,0.00
2013-8-12,63,57,0,29,16,0,28,20,14,26.96,20.38,13,3,21,0.00
2013-8-13,65,59,56,43,24,7,46,28,14,26.57,16.14,10,3,17,0.00
2013-8-14,68,59,56,48,21,10,52,26,16,31.11,16.14,11,3,18,0.00
2013-8-15,66,59,56,48,38,6,52,48,13,31.79,23.36,7,2,14,0.00
2013-8-16,68,59,54,47,18,3,47,22,12,30.92,17.81,12,2,19,0.00
2013-8-17,67,60,58,41,27,15,43,29,17,26.23,17.81,12,3,16,0.00
2013-8-18,66,58,57,32,24,13,37,27,17,28.54,17.21,7,2,15,0.00
2013-8-19,66,60,58,35,23,12,34,24,16,32.05,17.21,10,2,15,0.00
2013-8-20,64,60,57,32,22,11,32,24,16,31.86,20.71,8,2,15,0.00
2013-8-21,68,61,57,52,27,11,56,32,16,31.73,16.49,11,2,18,0.00
2013-8-22,71,63,56,55,40,28,57,44,35,30.29,16.49,11,3,23,0.00
2013-8-23,65,62,59,47,37,13,57,43,16,30.29,20.46,17,4,22,0.00
2013-8-24,66,61,59,42,28,13,42,31,16,27.64,17.48,12,4,25,0.00
2013-8-25,60,60,60,37,30,27,42,32,28,28.67,16.11,13,3,24,0.00
2013-8-26,67,61,57,38,29,27,34,30,28,27.32,16.11,16,3,21,0.00
2013-8-27,63,40,0,29,3,0,34,4,34,30.95,22.93,11,3,17,0.00
2013-8-28,67,63,63,45,30,0,45,30,28,32.05,21.14,11,3,18,0.00
2013-8-29,68,63,58,42,33,29,45,32,28,32.05,20.97,10,3,22,0.00
2013-8-30,58,58,58,32,32,32,38,38,38,28.21,22.33,10,2,14,0.00
2013-8-31,58,58,58,32,32,32,38,38,38,32.02,23.58,4,1,10,0.00
2013-9-1,58,58,58,32,32,32,38,38,38,32.32,24.11,6,1,12,0.00
2013-9-2,61,58,58,32,31,26,38,36,30,32.35,24.11,11,3,19,0.00
2013-9-3,69,63,61,51,38,30,53,41,30,30.56,24.11,21,4,27,0.00
2013-9-4,69,63,60,51,44,32,53,49,36,31.69,23.38,17,3,20,0.00
2013-9-5,69,62,60,50,36,23,53,38,24,31.06,25.19,14,2,19,0.00
2013-9-6,69,62,56,49,28,7,50,30,14,27.42,26.02,11,2,15,0.00
2013-9-7,66,59,55,45,18,7,46,22,14,27.42,20.43,10,2,13,0.00
2013-9-8,60,60,59,27,24,11,28,25,15,26.82,21.51,14,2,16,0.00
2013-9-9,62,59,57,30,21,10,30,24,15,26.22,20.83,10,2,14,0.00
2013-9-10,69,36,0,48,4,-25,52,27,14,27.98,16.72,9,1,16,0.00
2013-9-11,67,59,55,47,19,8,48,22,15,28.48,20.27,12,2,16,0.00
2013-9-12,65,60,59,27,23,22,24,23,20,28.48,20.14,13,3,22,0.00
2013-9-13,67,61,58,44,24,9,45,25,14,27.54,21.49,12,3,21,0.01
2013-9-14,66,60,57,44,21,6,45,24,13,27.31,18.65,14,2,21,0.00
2013-9-15,68,60,56,49,18,6,53,23,13,28.11,18.65,13,2,16,0.00
2013-9-16,67,60,56,41,16,6,38,20,13,29.07,20.74,7,2,16,0.00
2013-9-17,67,59,55,49,24,5,55,28,13,32.30,22.43,19,4,28,0.00
2013-9-18,69,59,53,52,25,5,57,30,14,32.30,21.37,14,3,23,0.00
2013-9-19,70,59,53,47,24,11,45,28,18,31.47,21.37,9,3,16,0.00
2013-9-20,68,60,56,46,26,6,51,30,12,26.17,18.85,10,3,15,0.00
2013-9-21,60,60,60,27,27,27,28,28,28,18.85,18.85,7,2,16,0.06
2013-9-22,66,61,58,50,30,13,55,32,17,26.87,17.34,14,3,21,0.01
2013-9-23,77,70,62,62,52,36,62,55,34,31.84,20.73,16,4,19,0.00
2013-9-24,68,63,55,51,37,7,57,40,14,30.87,25.13,12,3,22,0.00
2013-9-25,64,59,54,48,32,6,57,39,14,27.47,16.95,23,5,37,0.00
2013-9-26,64,56,47,48,35,12,58,45,21,28.89,16.02,15,3,23,0.00
2013-9-27,71,60,48,52,38,7,60,46,18,29.13,17.60,9,3,15,0.00
2013-9-28,76,67,57,45,42,34,59,40,33,31.21,16.49,11,2,18,0.00
2013-9-29,70,61,54,54,40,20,59,47,22,30.73,24.01,21,4,22,0.00
2013-9-30,72,61,52,56,34,18,61,38,22,27.10,22.51,16,4,21,0.00
2013-10-1,65,60,54,49,28,6,56,32,14,24.89,21.29,17,3,23,0.00
2013-10-2,66,57,53,49,22,6,55,28,15,28.42,16.03,9,2,17,0.00
2013-10-3,68,57,51,49,28,9,58,36,17,29.14,16.66,19,4,28,0.00
2013-10-4,77,69,58,46,39,35,55,35,24,27.02,16.66,8,2,17,0.00
2013-10-5,78,77,74,38,36,34,26,22,21,27.02,23.84,14,4,21,0.00
2013-10-6,66,64,60,36,25,21,39,23,21,31.77,23.99,7,2,13,0.00
2013-10-7,65,58,56,44,22,6,61,27,12,26.25,18.67,8,2,16,0.00
2013-10-8,62,56,53,42,20,6,49,26,15,28.35,18.67,10,2,14,0.00
2013-10-9,61,55,48,44,27,12,55,35,18,27.28,24.43,15,4,23,0.00
2013-10-10,63,55,46,46,27,6,54,36,18,30.90,24.04,11,2,17,0.00
2013-10-11,62,55,47,45,27,10,55,36,20,28.95,28.95,12,3,17,0.00
2013-10-12,61,55,52,26,13,5,29,19,13,28.95,20.62,10,3,17,0.00
2013-10-13,62,56,52,40,18,10,45,24,16,32.15,21.98,10,2,14,0.00
2013-10-14,73,63,53,53,37,13,60,41,18,32.15,25.77,16,3,22,0.00
2013-10-15,79,70,62,50,45,41,52,40,30,25.77,24.25,14,2,19,0.00
2013-10-16,83,72,59,48,41,34,57,34,22,30.93,21.44,9,3,15,0.00
2013-10-17,76,63,54,53,40,33,61,43,29,28.63,21.05,7,2,17,0.00
2013-10-18,72,62,54,54,36,2,60,40,11,32.47,20.71,10,2,16,0.00
2013-10-19,64,57,54,43,18,5,46,23,12,32.12,20.71,9,2,14,0.01
2013-10-20,64,57,0,40,20,-25,42,24,13,32.50,27.17,11,3,15,0.00
2013-10-21,58,54,1,24,14,-25,28,21,15,32.50,28.46,9,2,12,0.00
2013-10-22,60,54,52,20,15,10,28,22,16,30.29,26.47,6,2,13,0.00
2013-10-23,60,54,53,21,14,9,28,20,16,31.15,24.08,5,2,13,0.00
2013-10-24,60,55,51,38,16,7,44,22,15,29.71,24.96,14,2,21,0.00
2013-10-25,63,52,3,39,15,-52,41,23,5,29.25,25.31,7,2,17,0.00
2013-10-26,61,54,3,26,14,0,28,19,14,28.98,26.53,12,2,14,0.01
2013-10-27,58,54,1,38,20,-54,48,27,5,29.12,25.52,20,4,23,0.00
2013-10-28,59,56,52,30,13,8,32,18,15,27.82,24.11,17,4,23,0.20
2013-10-29,63,57,51,44,21,6,52,26,14,31.16,24.10,13,2,15,0.01
2013-10-30,64,55,49,48,27,9,59,38,15,31.16,24.25,10,2,19,0.00
2013-10-31,74,62,56,51,46,42,63,55,41,27.64,24.10,13,3,18,0.00
2013-11-1,74,65,58,52,46,41,61,50,37,30.98,24.10,6,2,11,0.00
2013-11-2,65,57,51,48,32,7,66,43,14,29.32,16.04,11,2,18,0.00
2013-11-3,66,58,54,50,27,10,58,34,17,23.21,20.55,9,2,19,0.00
2013-11-4,65,58,50,49,39,17,63,49,26,32.33,20.55,12,2,18,0.00
2013-11-5,69,58,48,50,39,34,62,50,31,27.79,24.08,6,3,15,0.00
2013-11-6,75,64,56,51,39,32,57,39,29,28.26,21.11,7,2,13,0.00
2013-11-7,76,60,51,54,31,6,64,36,16,31.87,21.83,13,2,15,0.00
2013-11-8,69,57,48,53,24,5,59,30,15,30.98,20.89,10,2,13,0.00
2013-11-9,65,56,50,43,20,6,46,26,14,32.07,21.24,6,2,13,0.00
2013-11-10,65,55,50,48,20,3,55,26,13,31.88,24.10,8,2,16,0.00
2013-11-11,67,56,49,51,19,5,56,25,12,28.02,24.10,8,3,19,0.00
2013-11-12,68,61,56,50,31,6,55,35,13,26.89,24.10,10,3,17,0.00
2013-11-13,76,62,53,54,32,8,59,35,15,27.79,24.10,10,2,15,0.00
2013-11-14,64,56,54,41,24,13,50,28,18,27.91,24.10,15,2,19,0.01
2013-11-15,59,53,48,48,26,10,68,38,21,31.63,24.10,24,3,26,0.00
2013-11-16,60,52,45,50,26,8,70,39,20,32.31,24.11,12,2,17,0.01
2013-11-17,61,53,46,50,25,9,66,37,20,28.83,21.61,6,2,12,0.00
2013-11-18,61,53,46,49,25,9,69,38,20,26.43,24.11,6,2,16,0.00
2013-11-19,59,54,47,46,23,10,63,32,20,26.35,24.11,9,2,14,0.00
2013-11-20,65,59,56,32,18,15,30,21,19,27.34,24.10,6,1,10,0.27
2013-11-21,60,57,54,46,26,15,67,33,20,31.31,24.11,12,3,17,0.00
2013-11-22,66,59,54,50,45,43,69,60,48,26.18,24.10,9,2,14,0.00
2013-11-23,64,56,46,52,44,23,72,64,39,29.49,24.10,9,2,13,0.00
2013-11-24,64,55,44,51,40,21,69,57,40,27.34,24.11,7,2,11,0.00
2013-11-25,70,60,52,49,45,42,70,60,46,29.20,24.10,7,2,16,0.00
2013-11-26,70,60,53,52,46,42,69,61,44,32.04,24.11,5,2,12,0.00
2013-11-27,68,58,50,52,46,39,70,63,45,24.32,24.14,6,2,18,0.00
2013-11-28,69,58,52,52,45,37,70,62,46,24.26,24.25,4,1,12,0.00
2013-11-29,68,58,50,53,45,25,70,61,38,24.26,24.25,5,2,11,0.00
2013-11-30,66,56,45,54,40,19,70,56,31,24.27,24.25,9,2,16,0.00
2013-12-1,76,65,52,50,43,36,70,47,30,32.25,24.10,10,2,18,0.00
2013-12-2,68,61,50,54,43,25,68,52,32,31.68,24.10,10,3,20,0.00
2013-12-3,61,54,49,48,31,15,68,46,20,27.18,24.11,20,6,36,0.00
2013-12-4,57,49,39,36,29,21,61,47,31,25.66,24.06,12,3,19,0.00
2013-12-5,55,47,40,34,26,20,55,44,31,26.38,24.11,11,3,16,0.00
2013-12-6,55,46,37,41,30,14,72,55,31,26.99,24.11,10,2,15,0.07
2013-12-7,55,51,44,42,30,10,67,47,21,25.10,24.06,19,6,27,0.13
2013-12-8,50,45,41,34,30,28,63,56,43,24.81,24.19,6,2,13,0.00
2013-12-9,59,48,40,30,27,22,62,46,30,25.01,24.11,6,2,14,0.00
2013-12-10,64,54,45,38,23,18,41,31,18,24.52,24.11,5,2,13,0.00
2013-12-11,62,52,41,46,31,19,66,46,28,27.20,24.11,9,2,11,0.00
2013-12-12,61,49,38,50,34,17,70,56,35,24.28,24.11,8,2,16,0.00
2013-12-13,61,50,40,48,30,11,69,47,29,26.99,24.11,5,2,10,0.00
2013-12-14,69,58,47,48,36,29,67,44,23,31.93,24.10,7,2,10,0.00
2013-12-15,74,65,51,42,33,27,49,31,20,27.12,24.10,8,2,12,0.00
2013-12-16,80,70,62,45,34,26,39,27,18,28.49,24.10,7,2,11,0.00
2013-12-17,76,62,54,51,37,29,67,42,24,30.50,24.08,5,1,12,0.00
2013-12-18,58,55,53,41,28,18,59,37,23,25.33,24.25,9,2,15,0.00
2013-12-19,60,55,49,45,41,35,68,61,47,26.55,24.11,16,6,30,0.00
2013-12-20,59,50,42,44,35,28,70,57,36,26.22,24.11,7,2,12,0.00
2013-12-21,61,51,41,48,39,30,68,64,54,24.44,24.10,9,2,12,0.00
2013-12-22,60,51,43,48,34,14,69,55,26,27.08,24.11,4,1,12,0.00
2013-12-23,62,51,43,51,18,8,66,29,20,25.66,24.11,7,2,13,0.00
2013-12-24,77,65,48,44,38,11,66,39,22,24.68,24.10,12,3,15,0.00
2013-12-25,76,65,56,44,38,30,47,37,26,25.71,24.10,6,2,9,0.00
2013-12-26,83,71,60,39,27,22,29,20,14,24.34,24.10,9,2,15,0.00
2013-12-27,78,62,53,46,36,22,64,40,18,24.49,24.10,8,2,14,0.00
2013-12-28,65,57,48,51,42,33,66,56,35,24.70,24.10,9,3,12,0.00
2013-12-29,75,59,48,46,36,32,63,45,21,24.11,24.10,6,2,12,0.00
2013-12-30,70,57,47,42,31,24,54,38,22,25.48,24.10,4,2,10,0.00
2013-12-31,62,52,45,49,31,12,66,46,24,24.25,24.10,10,3,13,0.00
2014-1-1,58,54,52,43,37,28,66,54,37,24.11,24.10,3,1,5,0.00
2014-1-2,69,58,46,49,40,23,66,52,35,26.42,24.10,6,2,12,0.00